createdAt,value
2022-10-26T00:01:16.653Z,98192.53
2022-10-26T00:03:45.429Z,98195.78
2022-10-26T00:06:22.380Z,98205.03
2022-10-26T00:08:49.903Z,98204.25
2022-10-26T00:11:18.626Z,98197.88
2022-10-26T00:13:46.971Z,98206.94
2022-10-26T00:16:23.391Z,98205.72
2022-10-26T00:18:51.225Z,98206.63
2022-10-26T00:21:18.672Z,98201.56
2022-10-26T00:23:45.774Z,98199.78
2022-10-26T00:26:12.688Z,98200.59
2022-10-26T00:28:39.624Z,98205.19
2022-10-26T00:31:16.133Z,98203.25
2022-10-26T00:33:43.111Z,98209.00
2022-10-26T00:36:11.307Z,98207.41
2022-10-26T00:38:38.476Z,98211.78
2022-10-26T00:41:05.628Z,98209.81
2022-10-26T00:43:33.906Z,98207.78
2022-10-26T00:46:03.046Z,98204.53
2022-10-26T00:48:38.421Z,98205.19
2022-10-26T00:51:17.919Z,98198.75
2022-10-26T00:53:44.991Z,98195.47
2022-10-26T00:56:12.116Z,98199.81
2022-10-26T00:58:40.820Z,98189.66
2022-10-26T01:01:10.107Z,98199.72
2022-10-26T01:03:38.260Z,98190.44
2022-10-26T01:06:06.806Z,98194.69
2022-10-26T01:08:34.318Z,98191.53
2022-10-26T01:11:07.349Z,98195.03
2022-10-26T01:13:36.253Z,98194.81
2022-10-26T01:16:12.032Z,98197.59
2022-10-26T01:18:41.977Z,98200.78
2022-10-26T01:21:55.667Z,98207.53
2022-10-26T01:25:02.282Z,98205.16
2022-10-26T01:27:38.651Z,98201.59
2022-10-26T01:30:26.869Z,98205.63
2022-10-26T01:33:18.728Z,98198.16
2022-10-26T01:35:50.710Z,98193.44
2022-10-26T01:38:29.762Z,98196.75
2022-10-26T01:41:06.315Z,98190.72
2022-10-26T01:43:37.612Z,98183.19
2022-10-26T01:46:06.795Z,98187.13
2022-10-26T01:48:39.467Z,98193.91
2022-10-26T01:51:07.789Z,98184.53
2022-10-26T01:53:34.759Z,98183.66
2022-10-26T01:56:02.454Z,98168.09
2022-10-26T01:58:58.606Z,98171.22
2022-10-26T02:01:52.071Z,98169.09
2022-10-26T02:04:59.310Z,98167.03
2022-10-26T02:07:57.686Z,98176.38
2022-10-26T02:11:02.725Z,98164.97
2022-10-26T02:13:45.144Z,98148.19
2022-10-26T02:16:37.740Z,98155.03
2022-10-26T02:19:42.930Z,98157.97
2022-10-26T02:22:25.218Z,98156.16
2022-10-26T02:24:53.959Z,98149.72
2022-10-26T02:27:27.113Z,98138.88
2022-10-26T02:29:56.914Z,98144.84
2022-10-26T02:32:28.395Z,98136.88
2022-10-26T02:34:58.886Z,98132.34
2022-10-26T02:37:27.658Z,98136.19
2022-10-26T02:39:58.217Z,98128.88
2022-10-26T02:42:27.045Z,98149.44
2022-10-26T02:45:05.185Z,98156.38
2022-10-26T02:47:32.986Z,98153.38
2022-10-26T02:50:00.258Z,98157.59
2022-10-26T02:52:48.697Z,98153.44
2022-10-26T02:55:28.684Z,98160.06
2022-10-26T02:58:02.379Z,98166.91
2022-10-26T03:00:30.821Z,98171.38
2022-10-26T03:03:03.559Z,98175.25
2022-10-26T03:05:32.813Z,98178.59
2022-10-26T03:08:00.667Z,98187.72
2022-10-26T03:10:27.750Z,98185.75
2022-10-26T03:12:57.477Z,98181.28
2022-10-26T03:15:24.500Z,98185.75
2022-10-26T03:17:51.839Z,98187.75
2022-10-26T03:20:19.145Z,98178.50
2022-10-26T03:22:48.622Z,98183.09
2022-10-26T03:25:15.951Z,98196.13
2022-10-26T03:27:43.336Z,98194.41
2022-10-26T03:30:10.798Z,98203.84
2022-10-26T03:32:38.669Z,98200.78
2022-10-26T03:35:05.853Z,98204.53
2022-10-26T03:37:33.061Z,98201.31
2022-10-26T03:40:00.022Z,98219.63
2022-10-26T03:42:28.057Z,98216.47
2022-10-26T03:44:55.077Z,98218.78
2022-10-26T03:47:22.093Z,98216.13
2022-10-26T03:49:49.133Z,98223.38
2022-10-26T03:52:16.091Z,98229.94
2022-10-26T03:54:43.041Z,98234.31
2022-10-26T03:57:10.094Z,98226.66
2022-10-26T03:59:37.444Z,98217.81
2022-10-26T04:02:05.687Z,98228.63
2022-10-26T04:04:32.939Z,98239.50
2022-10-26T04:07:00.002Z,98241.09
2022-10-26T04:09:27.055Z,98239.06
2022-10-26T04:11:54.199Z,98235.06
2022-10-26T04:14:21.362Z,98243.31
2022-10-26T04:16:48.505Z,98240.53
2022-10-26T04:19:20.741Z,98233.31
2022-10-26T04:21:48.192Z,98225.88
2022-10-26T04:24:15.321Z,98228.00
2022-10-26T04:26:42.458Z,98222.41
2022-10-26T04:29:10.050Z,98221.50
2022-10-26T04:31:37.140Z,98217.78
2022-10-26T04:34:04.427Z,98208.53
2022-10-26T04:36:31.587Z,98206.00
2022-10-26T04:38:58.519Z,98203.44
2022-10-26T04:41:25.470Z,98199.69
2022-10-26T04:43:52.426Z,98201.31
2022-10-26T04:46:19.405Z,98191.63
2022-10-26T04:48:48.710Z,98186.03
2022-10-26T04:51:17.301Z,98197.97
2022-10-26T04:53:44.378Z,98200.06
2022-10-26T04:56:11.431Z,98196.59
2022-10-26T04:58:38.381Z,98194.06
2022-10-26T05:01:05.642Z,98188.50
2022-10-26T05:03:32.662Z,98192.06
2022-10-26T05:06:01.383Z,98196.22
2022-10-26T05:08:29.965Z,98188.22
2022-10-26T05:10:57.205Z,98210.84
2022-10-26T05:13:24.550Z,98196.03
2022-10-26T05:15:54.398Z,98188.69
2022-10-26T05:18:21.758Z,98192.78
2022-10-26T05:20:50.294Z,98198.31
2022-10-26T05:23:18.710Z,98194.28
2022-10-26T05:25:47.584Z,98207.53
2022-10-26T05:28:16.145Z,98202.88
2022-10-26T05:30:44.905Z,98200.31
2022-10-26T05:33:14.151Z,98213.06
2022-10-26T05:35:41.515Z,98196.31
2022-10-26T05:38:09.601Z,98200.44
2022-10-26T05:40:37.057Z,98210.63
2022-10-26T05:43:04.688Z,98218.66
2022-10-26T05:45:36.746Z,98215.31
2022-10-26T05:48:05.638Z,98226.75
2022-10-26T05:50:32.861Z,98227.63
2022-10-26T05:53:00.138Z,98234.03
2022-10-26T05:55:27.945Z,98242.94
2022-10-26T05:57:55.507Z,98238.06
2022-10-26T06:00:28.805Z,98246.41
2022-10-26T06:06:01.588Z,98251.25
2022-10-26T06:08:31.899Z,98252.69
2022-10-26T06:11:03.101Z,98249.44
2022-10-26T06:13:30.485Z,98256.47
2022-10-26T06:16:28.468Z,98261.75
2022-10-26T06:19:38.148Z,98269.81
2022-10-26T06:22:13.711Z,98267.63
2022-10-26T06:25:02.143Z,98273.97
2022-10-26T06:27:56.644Z,98275.81
2022-10-26T06:30:23.588Z,98289.00
2022-10-26T06:33:01.439Z,98294.88
2022-10-26T06:35:41.276Z,98298.47
2022-10-26T06:38:13.695Z,98304.16
2022-10-26T06:40:45.168Z,98312.72
2022-10-26T06:43:38.692Z,98318.31
2022-10-26T06:46:28.584Z,98329.72
2022-10-26T06:49:25.133Z,98333.19
2022-10-26T06:51:59.110Z,98342.47
2022-10-26T06:54:50.372Z,98343.22
2022-10-26T06:57:23.663Z,98333.69
2022-10-26T07:00:00.595Z,98328.25
2022-10-26T07:02:28.385Z,98333.34
2022-10-26T07:04:55.735Z,98330.31
2022-10-26T07:07:26.141Z,98340.00
2022-10-26T07:09:53.521Z,98350.09
2022-10-26T07:12:20.844Z,98355.81
2022-10-26T07:14:48.172Z,98368.41
2022-10-26T07:17:17.086Z,98364.78
2022-10-26T07:19:44.937Z,98370.28
2022-10-26T07:22:12.148Z,98375.41
2022-10-26T07:24:39.986Z,98374.66
2022-10-26T07:27:06.990Z,98374.44
2022-10-26T07:29:35.346Z,98378.50
2022-10-26T07:32:02.993Z,98363.91
2022-10-26T07:34:30.051Z,98374.50
2022-10-26T07:37:00.261Z,98373.44
2022-10-26T07:39:27.966Z,98365.66
2022-10-26T07:41:55.374Z,98373.56
2022-10-26T07:44:22.424Z,98383.81
2022-10-26T07:46:49.380Z,98384.09
2022-10-26T07:49:19.273Z,98384.50
2022-10-26T07:51:46.855Z,98388.16
2022-10-26T07:54:13.795Z,98386.47
2022-10-26T07:56:40.785Z,98400.34
2022-10-26T07:59:07.769Z,98387.72
2022-10-26T08:01:34.937Z,98407.84
2022-10-26T08:04:02.118Z,98408.94
2022-10-26T08:06:29.076Z,98404.03
2022-10-26T08:08:56.243Z,98404.84
2022-10-26T08:11:23.239Z,98400.69
2022-10-26T08:13:53.534Z,98402.44
2022-10-26T08:16:21.427Z,98396.78
2022-10-26T08:18:49.671Z,98403.78
2022-10-26T08:21:21.568Z,98403.63
2022-10-26T08:23:53.021Z,98391.00
2022-10-26T08:26:21.219Z,98392.97
2022-10-26T08:28:50.062Z,98389.03
2022-10-26T08:31:17.134Z,98376.16
2022-10-26T08:33:45.048Z,98380.31
2022-10-26T08:36:13.716Z,98376.94
2022-10-26T08:38:40.732Z,98389.63
2022-10-26T08:41:09.331Z,98370.00
2022-10-26T08:43:55.652Z,98375.75
2022-10-26T08:46:30.924Z,98387.69
2022-10-26T08:49:05.188Z,98392.84
2022-10-26T08:51:37.487Z,98377.69
2022-10-26T08:54:15.602Z,98389.03
2022-10-26T08:56:51.074Z,98390.50
2022-10-26T08:59:39.103Z,98396.47
2022-10-26T09:02:14.172Z,98401.75
2022-10-26T09:04:41.803Z,98409.50
2022-10-26T09:07:24.362Z,98395.22
2022-10-26T09:10:08.713Z,98400.44
2022-10-26T09:12:49.323Z,98410.16
2022-10-26T09:15:24.703Z,98412.00
2022-10-26T09:18:16.175Z,98427.09
2022-10-26T09:21:01.278Z,98431.75
2022-10-26T09:23:57.551Z,98427.59
2022-10-26T09:26:51.229Z,98434.66
2022-10-26T09:29:19.422Z,98432.25
2022-10-26T09:31:50.811Z,98440.66
2022-10-26T09:34:47.491Z,98444.56
2022-10-26T09:37:28.901Z,98446.09
2022-10-26T09:40:15.738Z,98456.09
2022-10-26T09:42:59.249Z,98452.13
2022-10-26T09:45:35.707Z,98454.41
2022-10-26T09:48:13.633Z,98465.03
2022-10-26T09:50:45.657Z,98464.94
2022-10-26T09:53:12.863Z,98470.38
2022-10-26T09:55:45.208Z,98475.38
2022-10-26T09:58:24.150Z,98477.59
2022-10-26T10:00:52.307Z,98479.19
2022-10-26T10:03:31.699Z,98480.03
2022-10-26T10:06:19.952Z,98488.56
2022-10-26T10:09:12.327Z,98480.72
2022-10-26T10:11:55.282Z,98478.25
2022-10-26T10:14:34.779Z,98479.91
2022-10-26T10:17:17.750Z,98483.22
2022-10-26T10:19:44.668Z,98489.94
2022-10-26T10:22:23.402Z,98479.00
2022-10-26T10:24:56.860Z,98461.75
2022-10-26T10:27:24.998Z,98476.38
2022-10-26T10:30:01.341Z,98479.44
2022-10-26T10:32:35.745Z,98479.16
2022-10-26T10:35:29.949Z,98467.03
2022-10-26T10:37:57.824Z,98480.25
2022-10-26T10:40:28.265Z,98487.31
2022-10-26T10:43:12.253Z,98493.84
2022-10-26T10:45:40.577Z,98489.44
2022-10-26T10:48:16.249Z,98486.69
2022-10-26T10:51:00.498Z,98484.34
2022-10-26T10:53:38.505Z,98499.00
2022-10-26T10:56:17.481Z,98495.53
2022-10-26T10:59:08.485Z,98503.34
2022-10-26T11:01:54.854Z,98502.16
2022-10-26T11:04:58.439Z,98497.81
2022-10-26T11:07:28.342Z,98502.44
2022-10-26T11:09:56.980Z,98503.66
2022-10-26T11:12:49.507Z,98504.06
2022-10-26T11:15:22.729Z,98507.84
2022-10-26T11:18:17.941Z,98505.13
2022-10-26T11:21:01.956Z,98502.81
2022-10-26T11:23:42.586Z,98508.22
2022-10-26T11:26:31.798Z,98515.81
2022-10-26T11:29:04.702Z,98512.59
2022-10-26T11:31:44.915Z,98521.50
2022-10-26T11:34:26.429Z,98518.50
2022-10-26T11:37:03.474Z,98521.31
2022-10-26T11:39:41.336Z,98525.34
2022-10-26T11:42:37.911Z,98525.84
2022-10-26T11:45:29.517Z,98524.78
2022-10-26T11:48:15.028Z,98514.47
2022-10-26T11:50:51.277Z,98516.63
2022-10-26T11:53:24.684Z,98523.97
2022-10-26T11:55:54.585Z,98522.03
2022-10-26T11:58:26.843Z,98532.84
2022-10-26T12:01:01.379Z,98534.50
2022-10-26T12:03:43.832Z,98529.78
2022-10-26T12:06:12.178Z,98534.38
2022-10-26T12:08:43.655Z,98533.31
2022-10-26T12:11:32.164Z,98536.59
2022-10-26T12:14:23.996Z,98540.34
2022-10-26T12:17:21.445Z,98539.81
2022-10-26T12:20:29.501Z,98535.38
2022-10-26T12:22:57.201Z,98539.72
2022-10-26T12:25:24.131Z,98539.38
2022-10-26T12:27:56.650Z,98543.94
2022-10-26T12:30:33.146Z,98543.72
2022-10-26T12:33:22.118Z,98544.81
2022-10-26T12:35:49.040Z,98546.25
2022-10-26T12:38:39.329Z,98549.28
2022-10-26T12:41:10.641Z,98551.28
2022-10-26T12:43:40.279Z,98543.19
2022-10-26T12:46:13.239Z,98548.84
2022-10-26T12:48:48.557Z,98548.88
2022-10-26T12:51:30.153Z,98557.72
2022-10-26T12:54:35.931Z,98554.81
2022-10-26T12:57:05.453Z,98574.28
2022-10-26T13:00:17.181Z,98560.47
2022-10-26T13:02:59.706Z,98562.03
2022-10-26T13:06:06.748Z,98565.44
2022-10-26T13:08:44.073Z,98570.50
2022-10-26T13:11:38.206Z,98564.75
2022-10-26T13:14:08.735Z,98568.50
2022-10-26T13:16:35.963Z,98571.75
2022-10-26T13:19:02.952Z,98574.47
2022-10-26T13:21:29.905Z,98581.19
2022-10-26T13:24:05.229Z,98583.75
2022-10-26T13:26:33.279Z,98575.53
2022-10-26T13:29:03.181Z,98581.56
2022-10-26T13:31:32.866Z,98574.72
2022-10-26T13:34:16.059Z,98586.94
2022-10-26T13:37:00.401Z,98578.69
2022-10-26T13:39:38.843Z,98587.94
2022-10-26T13:42:07.541Z,98594.88
2022-10-26T13:44:54.554Z,98586.06
2022-10-26T13:47:30.216Z,98589.28
2022-10-26T13:50:04.806Z,98591.84
2022-10-26T13:52:41.457Z,98591.44
2022-10-26T13:55:21.628Z,98593.03
2022-10-26T13:58:22.846Z,98596.59
2022-10-26T14:01:24.870Z,98609.03
2022-10-26T14:03:51.998Z,98602.28
2022-10-26T14:06:38.124Z,98609.78
2022-10-26T14:09:13.673Z,98602.28
2022-10-26T14:11:50.063Z,98606.56
2022-10-26T14:14:37.924Z,98608.00
2022-10-26T14:17:05.465Z,98613.50
2022-10-26T14:19:40.825Z,98615.31
2022-10-26T14:22:08.039Z,98612.03
2022-10-26T14:24:48.424Z,98608.94
2022-10-26T14:27:18.399Z,98615.72
2022-10-26T14:29:49.785Z,98614.41
2022-10-26T14:32:33.768Z,98621.09
2022-10-26T14:35:00.801Z,98621.69
2022-10-26T14:37:58.684Z,98627.72
2022-10-26T14:40:30.485Z,98624.50
2022-10-26T14:43:00.240Z,98630.66
2022-10-26T14:45:48.129Z,98634.00
2022-10-26T14:48:30.804Z,98622.53
2022-10-26T14:51:17.375Z,98632.94
2022-10-26T14:54:01.063Z,98632.16
2022-10-26T14:56:37.211Z,98640.25
2022-10-26T14:59:31.351Z,98630.56
2022-10-26T15:01:59.912Z,98633.75
2022-10-26T15:04:42.376Z,98634.50
2022-10-26T15:07:14.966Z,98652.28
2022-10-26T15:09:45.422Z,98646.84
2022-10-26T15:12:35.014Z,98648.31
2022-10-26T15:15:23.679Z,98654.16
2022-10-26T15:17:54.876Z,98648.41
2022-10-26T15:20:25.246Z,98657.81
2022-10-26T15:22:58.587Z,98665.41
2022-10-26T15:25:29.788Z,98663.84
2022-10-26T15:28:25.415Z,98660.69
2022-10-26T15:31:06.568Z,98661.94
2022-10-26T15:33:34.409Z,98665.53
2022-10-26T15:36:20.270Z,98666.63
2022-10-26T15:38:51.673Z,98673.41
2022-10-26T15:41:34.000Z,98675.16
2022-10-26T15:44:05.991Z,98672.75
2022-10-26T15:46:36.153Z,98674.38
2022-10-26T15:49:07.047Z,98684.44
2022-10-26T15:51:34.771Z,98679.91
2022-10-26T15:54:05.387Z,98682.63
2022-10-26T15:56:32.718Z,98682.78
2022-10-26T15:58:59.990Z,98684.13
2022-10-26T16:01:29.118Z,98688.78
2022-10-26T16:03:56.357Z,98692.19
2022-10-26T16:06:35.326Z,98693.72
2022-10-26T16:09:05.884Z,98693.75
2022-10-26T16:11:33.200Z,98698.03
2022-10-26T16:14:03.530Z,98699.38
2022-10-26T16:16:31.284Z,98700.47
2022-10-26T16:19:18.458Z,98684.22
2022-10-26T16:21:45.301Z,98694.53
2022-10-26T16:24:12.339Z,98698.50
2022-10-26T16:26:39.299Z,98706.09
2022-10-26T16:29:06.305Z,98706.44
2022-10-26T16:31:33.321Z,98707.00
2022-10-26T16:34:03.288Z,98708.59
2022-10-26T16:36:34.064Z,98713.75
2022-10-26T16:41:29.114Z,98727.03
2022-10-26T16:43:56.578Z,98730.84
2022-10-26T16:46:23.935Z,98729.22
2022-10-26T16:48:52.095Z,98737.88
2022-10-26T16:51:26.494Z,98735.72
2022-10-26T16:53:56.050Z,98739.25
2022-10-26T16:56:27.464Z,98745.72
2022-10-26T16:58:54.958Z,98750.88
2022-10-26T17:01:22.853Z,98750.75
2022-10-26T17:03:51.822Z,98748.50
2022-10-26T17:06:19.499Z,98751.22
2022-10-26T17:08:46.765Z,98758.19
2022-10-26T17:11:17.872Z,98756.16
2022-10-26T17:13:45.348Z,98760.13
2022-10-26T17:16:19.503Z,98758.75
2022-10-26T17:18:47.927Z,98775.91
2022-10-26T17:21:17.972Z,98774.25
2022-10-26T17:23:45.530Z,98777.38
2022-10-26T17:26:14.488Z,98775.59
2022-10-26T17:28:41.772Z,98777.84
2022-10-26T17:31:15.084Z,98791.50
2022-10-26T17:33:44.720Z,98790.66
2022-10-26T17:36:13.762Z,98802.28
2022-10-26T17:38:42.677Z,98800.94
2022-10-26T17:41:12.888Z,98801.03
2022-10-26T17:43:41.795Z,98811.00
2022-10-26T17:46:21.312Z,98812.03
2022-10-26T17:48:48.296Z,98816.03
2022-10-26T17:51:19.322Z,98827.84
2022-10-26T17:53:51.021Z,98814.13
2022-10-26T17:56:22.623Z,98817.44
2022-10-26T17:58:56.032Z,98816.91
2022-10-26T18:01:23.508Z,98826.63
2022-10-26T18:03:51.165Z,98830.53
2022-10-26T18:06:18.239Z,98827.84
2022-10-26T18:08:45.943Z,98834.22
2022-10-26T18:11:26.959Z,98832.31
2022-10-26T18:13:55.878Z,98833.28
2022-10-26T18:16:25.080Z,98844.78
2022-10-26T18:19:02.053Z,98840.34
2022-10-26T18:21:32.650Z,98847.94
2022-10-26T18:23:59.797Z,98848.66
2022-10-26T18:26:28.749Z,98855.75
2022-10-26T18:28:57.148Z,98850.72
2022-10-26T18:31:26.222Z,98862.59
2022-10-26T18:34:01.995Z,98857.88
2022-10-26T18:36:30.088Z,98858.34
2022-10-26T18:38:57.948Z,98865.59
2022-10-26T18:41:25.555Z,98857.94
2022-10-26T18:43:56.532Z,98857.56
2022-10-26T18:46:27.905Z,98863.00
2022-10-26T18:48:55.979Z,98872.44
2022-10-26T18:51:26.049Z,98863.06
2022-10-26T18:53:52.947Z,98866.69
2022-10-26T18:56:21.960Z,98873.09
2022-10-26T18:58:52.282Z,98866.94
2022-10-26T19:01:22.009Z,98865.09
2022-10-26T19:04:00.689Z,98875.72
2022-10-26T19:06:47.279Z,98869.34
2022-10-26T19:09:18.620Z,98872.38
2022-10-26T19:11:45.945Z,98877.91
2022-10-26T19:14:13.907Z,98879.53
2022-10-26T19:16:46.005Z,98873.09
2022-10-26T19:19:15.957Z,98883.56
2022-10-26T19:21:43.298Z,98879.59
2022-10-26T19:24:21.537Z,98884.91
2022-10-26T19:26:50.425Z,98886.84
2022-10-26T19:29:18.392Z,98884.97
2022-10-26T19:31:47.548Z,98893.41
2022-10-26T19:34:16.202Z,98901.25
2022-10-26T19:36:47.165Z,98889.97
2022-10-26T19:39:18.243Z,98889.03
2022-10-26T19:41:46.672Z,98887.25
2022-10-26T19:44:15.072Z,98894.78
2022-10-26T19:46:43.775Z,98899.00
2022-10-26T19:49:12.386Z,98901.31
2022-10-26T19:51:41.918Z,98906.78
2022-10-26T19:54:08.894Z,98909.91
2022-10-26T19:56:37.402Z,98909.00
2022-10-26T19:59:05.578Z,98901.47
2022-10-26T20:01:33.109Z,98899.94
2022-10-26T20:04:02.418Z,98918.97
2022-10-26T20:06:30.628Z,98909.97
2022-10-26T20:08:57.656Z,98910.72
2022-10-26T20:11:24.719Z,98916.63
2022-10-26T20:13:51.728Z,98923.06
2022-10-26T20:16:19.521Z,98923.81
2022-10-26T20:18:48.898Z,98918.31
2022-10-26T20:21:17.845Z,98926.50
2022-10-26T20:23:45.809Z,98924.09
2022-10-26T20:26:19.409Z,98922.31
2022-10-26T20:28:53.204Z,98927.06
2022-10-26T20:31:20.266Z,98922.16
2022-10-26T20:33:52.160Z,98933.84
2022-10-26T20:36:19.155Z,98933.59
2022-10-26T20:38:46.612Z,98930.22
2022-10-26T20:41:14.175Z,98941.25
2022-10-26T20:43:42.490Z,98940.47
2022-10-26T20:46:23.553Z,98941.84
2022-10-26T20:48:51.975Z,98940.69
2022-10-26T20:52:22.446Z,98941.34
2022-10-26T20:55:16.426Z,98935.88
2022-10-26T20:57:54.570Z,98941.25
2022-10-26T21:00:21.869Z,98944.63
2022-10-26T21:02:49.143Z,98944.69
2022-10-26T21:05:18.267Z,98939.81
2022-10-26T21:07:45.220Z,98946.09
2022-10-26T21:10:12.173Z,98948.13
2022-10-26T21:12:39.053Z,98943.75
2022-10-26T21:15:07.092Z,98954.94
2022-10-26T21:17:34.412Z,98954.16
2022-10-26T21:20:01.318Z,98948.03
2022-10-26T21:22:28.234Z,98952.72
2022-10-26T21:24:55.093Z,98955.69
2022-10-26T21:27:21.971Z,98961.84
2022-10-26T21:29:48.884Z,98961.66
2022-10-26T21:32:15.859Z,98963.31
2022-10-26T21:34:42.933Z,98959.75
2022-10-26T21:37:09.798Z,98959.34
2022-10-26T21:39:36.700Z,98953.97
2022-10-26T21:42:03.689Z,98951.56
2022-10-26T21:44:41.005Z,98965.31
2022-10-26T21:47:09.268Z,98969.47
2022-10-26T21:49:38.731Z,98976.09
2022-10-26T21:52:07.332Z,98969.34
2022-10-26T21:54:34.225Z,98973.44
2022-10-26T21:57:01.131Z,98978.63
2022-10-26T21:59:28.063Z,98971.41
2022-10-26T22:01:55.080Z,98979.53
2022-10-26T22:04:22.199Z,98977.78
2022-10-26T22:06:49.106Z,98982.38
2022-10-26T22:09:16.047Z,98984.03
2022-10-26T22:11:42.980Z,98976.94
2022-10-26T22:14:09.932Z,98983.28
2022-10-26T22:16:36.821Z,98979.34
2022-10-26T22:19:07.220Z,98985.59
2022-10-26T22:21:37.700Z,98980.75
2022-10-26T22:24:05.685Z,98980.13
2022-10-26T22:26:36.310Z,98978.63
2022-10-26T22:29:04.278Z,98978.13
2022-10-26T22:31:35.214Z,98973.47
2022-10-26T22:34:07.691Z,98981.97
2022-10-26T22:36:35.866Z,98986.53
2022-10-26T22:39:03.285Z,98984.66
2022-10-26T22:41:30.534Z,98988.25
2022-10-26T22:43:57.571Z,98987.81
2022-10-26T22:46:27.472Z,98982.81
2022-10-26T22:49:00.293Z,98981.69
2022-10-26T22:51:33.441Z,98985.06
2022-10-26T22:54:03.162Z,98989.81
2022-10-26T22:56:33.567Z,98980.06
2022-10-26T22:59:00.605Z,98979.34
2022-10-26T23:01:36.069Z,98983.56
2022-10-26T23:04:03.172Z,98978.44
2022-10-26T23:06:31.708Z,98979.94
2022-10-26T23:08:59.319Z,98977.84
2022-10-26T23:11:28.388Z,98978.19
2022-10-26T23:13:58.331Z,98977.88
2022-10-26T23:16:26.682Z,98984.03
2022-10-26T23:18:54.227Z,98979.97
2022-10-26T23:21:23.835Z,98986.16
2022-10-26T23:23:50.758Z,98985.78
2022-10-26T23:26:21.350Z,98989.19
2022-10-26T23:28:50.082Z,98983.56
2022-10-26T23:31:23.556Z,98985.91
2022-10-26T23:33:51.613Z,98986.47
2022-10-26T23:36:19.591Z,98987.41
2022-10-26T23:38:47.484Z,98997.50
2022-10-26T23:41:15.165Z,98998.31
2022-10-26T23:43:42.216Z,98996.44
2022-10-26T23:46:09.243Z,98996.06
2022-10-26T23:48:36.777Z,98992.78
2022-10-26T23:51:03.850Z,98989.84
2022-10-26T23:53:30.912Z,98981.78
2022-10-26T23:55:57.819Z,98986.97
2022-10-26T23:58:24.921Z,98994.81
